createdAt,value
2018-11-28T00:00:27.942Z,1024.13
2018-11-28T00:01:27.668Z,1024.08
2018-11-28T00:02:27.674Z,1024.07
2018-11-28T00:03:28.021Z,1024.08
2018-11-28T00:04:27.929Z,1024.09
2018-11-28T00:05:27.879Z,1024.05
2018-11-28T00:06:27.880Z,1024.1
2018-11-28T00:07:27.641Z,1024.13
2018-11-28T00:08:27.750Z,1024.11
2018-11-28T00:09:28.003Z,1024.17
2018-11-28T00:10:27.623Z,1024.15
2018-11-28T00:11:27.644Z,1024.14
2018-11-28T00:12:27.655Z,1024.12
2018-11-28T00:13:27.764Z,1024.15
2018-11-28T00:14:27.698Z,1024.12
2018-11-28T00:15:27.708Z,1024.16
2018-11-28T00:16:27.739Z,1024.13
2018-11-28T00:17:27.671Z,1024.12
2018-11-28T00:18:27.681Z,1024.13
2018-11-28T00:19:27.629Z,1024.14
2018-11-28T00:20:27.903Z,1024.1
2018-11-28T00:21:27.774Z,1024.07
2018-11-28T00:22:27.630Z,1024.09
2018-11-28T00:23:27.687Z,1024.06
2018-11-28T00:24:27.614Z,1024.06
2018-11-28T00:25:27.602Z,1024.02
2018-11-28T00:26:27.802Z,1024.02
2018-11-28T00:27:27.619Z,1024.02
2018-11-28T00:28:27.650Z,1024.03
2018-11-28T00:29:27.627Z,1024
2018-11-28T00:30:27.701Z,1023.96
2018-11-28T00:31:27.603Z,1023.96
2018-11-28T00:32:27.617Z,1023.98
2018-11-28T00:33:27.600Z,1023.95
2018-11-28T00:34:27.606Z,1023.95
2018-11-28T00:35:27.592Z,1024.05
2018-11-28T00:36:27.603Z,1024
2018-11-28T00:37:27.594Z,1023.98
2018-11-28T00:38:27.609Z,1023.98
2018-11-28T00:39:27.705Z,1023.97
2018-11-28T00:40:27.603Z,1023.96
2018-11-28T00:41:27.665Z,1023.95
2018-11-28T00:42:27.707Z,1023.99
2018-11-28T00:43:27.671Z,1023.95
2018-11-28T00:44:27.657Z,1023.91
2018-11-28T00:45:27.621Z,1023.98
2018-11-28T00:46:27.627Z,1023.95
2018-11-28T00:47:27.623Z,1023.97
2018-11-28T00:48:27.657Z,1023.97
2018-11-28T00:49:27.663Z,1023.97
2018-11-28T00:50:27.680Z,1023.99
2018-11-28T00:51:27.779Z,1023.99
2018-11-28T00:52:27.633Z,1023.97
2018-11-28T00:53:27.675Z,1023.97
2018-11-28T00:54:27.953Z,1023.94
2018-11-28T00:55:27.747Z,1023.97
2018-11-28T00:56:27.665Z,1023.98
2018-11-28T00:57:27.633Z,1023.95
2018-11-28T00:58:27.742Z,1023.96
2018-11-28T00:59:27.958Z,1023.96
2018-11-28T01:00:27.595Z,1023.98
2018-11-28T01:01:27.687Z,1023.98
2018-11-28T01:02:27.658Z,1023.96
2018-11-28T01:03:27.940Z,1024
2018-11-28T01:04:27.876Z,1023.98
2018-11-28T01:05:27.615Z,1023.98
2018-11-28T01:06:27.893Z,1024.01
2018-11-28T01:07:27.612Z,1024.01
2018-11-28T01:08:27.624Z,1023.98
2018-11-28T01:09:27.542Z,1023.99
2018-11-28T01:10:27.595Z,1023.97
2018-11-28T01:11:27.573Z,1023.98
2018-11-28T01:12:27.544Z,1024.02
2018-11-28T01:13:28.426Z,1023.95
2018-11-28T01:14:27.598Z,1023.98
2018-11-28T01:15:27.587Z,1023.94
2018-11-28T01:16:27.590Z,1023.91
2018-11-28T01:17:27.699Z,1023.89
2018-11-28T01:18:27.593Z,1023.92
2018-11-28T01:19:27.582Z,1023.91
2018-11-28T01:20:27.799Z,1023.89
2018-11-28T01:21:28.098Z,1023.89
2018-11-28T01:22:27.747Z,1023.92
2018-11-28T01:23:27.562Z,1023.89
2018-11-28T01:24:28.042Z,1023.86
2018-11-28T01:25:27.645Z,1023.86
2018-11-28T01:26:27.820Z,1023.88
2018-11-28T01:27:27.552Z,1023.85
2018-11-28T01:28:27.917Z,1023.86
2018-11-28T01:29:27.592Z,1023.88
2018-11-28T01:30:27.744Z,1023.83
2018-11-28T01:31:27.724Z,1023.83
2018-11-28T01:32:27.557Z,1023.82
2018-11-28T01:33:27.682Z,1023.85
2018-11-28T01:34:27.526Z,1023.85
2018-11-28T01:35:27.542Z,1023.84
2018-11-28T01:36:27.680Z,1023.85
2018-11-28T01:37:27.539Z,1023.78
2018-11-28T01:38:27.609Z,1023.8
2018-11-28T01:39:27.555Z,1023.8
2018-11-28T01:40:27.659Z,1023.8
2018-11-28T01:41:27.688Z,1023.83
2018-11-28T01:42:27.664Z,1023.83
2018-11-28T01:43:27.513Z,1023.77
2018-11-28T01:44:27.746Z,1023.84
2018-11-28T01:45:27.642Z,1023.82
2018-11-28T01:46:27.606Z,1023.82
2018-11-28T01:47:27.597Z,1023.8
2018-11-28T01:48:27.738Z,1023.81
2018-11-28T01:49:27.571Z,1023.8
2018-11-28T01:50:27.735Z,1023.82
2018-11-28T01:51:27.506Z,1023.81
2018-11-28T01:52:27.513Z,1023.81
2018-11-28T01:53:27.723Z,1023.82
2018-11-28T01:54:27.543Z,1023.79
2018-11-28T01:55:27.694Z,1023.81
2018-11-28T01:56:27.698Z,1023.78
2018-11-28T01:57:27.546Z,1023.79
2018-11-28T01:58:27.481Z,1023.75
2018-11-28T01:59:27.516Z,1023.83
2018-11-28T02:00:27.478Z,1023.82
2018-11-28T02:01:27.500Z,1023.8
2018-11-28T02:02:27.510Z,1023.81
2018-11-28T02:03:27.486Z,1023.83
2018-11-28T02:04:27.495Z,1023.77
2018-11-28T02:05:27.502Z,1023.8
2018-11-28T02:06:27.509Z,1023.78
2018-11-28T02:07:27.500Z,1023.79
2018-11-28T02:08:27.545Z,1023.81
2018-11-28T02:09:27.528Z,1023.8
2018-11-28T02:10:27.481Z,1023.79
2018-11-28T02:11:27.524Z,1023.83
2018-11-28T02:12:27.520Z,1023.87
2018-11-28T02:13:27.528Z,1023.79
2018-11-28T02:14:27.461Z,1023.81
2018-11-28T02:15:27.472Z,1023.8
2018-11-28T02:16:27.467Z,1023.79
2018-11-28T02:17:27.487Z,1023.79
2018-11-28T02:18:27.504Z,1023.8
2018-11-28T02:19:27.460Z,1023.8
2018-11-28T02:20:27.567Z,1023.78
2018-11-28T02:21:27.463Z,1023.79
2018-11-28T02:22:27.504Z,1023.79
2018-11-28T02:23:27.429Z,1023.77
2018-11-28T02:24:27.601Z,1023.75
2018-11-28T02:25:27.514Z,1023.75
2018-11-28T02:26:27.508Z,1023.73
2018-11-28T02:27:27.463Z,1023.7
2018-11-28T02:28:27.516Z,1023.73
2018-11-28T02:29:27.625Z,1023.72
2018-11-28T02:30:27.533Z,1023.65
2018-11-28T02:31:27.613Z,1023.72
2018-11-28T02:32:27.441Z,1023.66
2018-11-28T02:33:28.169Z,1023.65
2018-11-28T02:34:27.479Z,1023.63
2018-11-28T02:35:27.667Z,1023.66
2018-11-28T02:36:27.539Z,1023.64
2018-11-28T02:37:27.453Z,1023.64
2018-11-28T02:38:27.465Z,1023.66
2018-11-28T02:39:27.617Z,1023.65
2018-11-28T02:40:27.635Z,1023.63
2018-11-28T02:41:27.450Z,1023.67
2018-11-28T02:42:27.443Z,1023.63
2018-11-28T02:43:27.631Z,1023.6
2018-11-28T02:44:27.469Z,1023.59
2018-11-28T02:45:27.665Z,1023.62
2018-11-28T02:46:27.422Z,1023.6
2018-11-28T02:47:27.446Z,1023.56
2018-11-28T02:48:27.471Z,1023.57
2018-11-28T02:49:27.537Z,1023.59
2018-11-28T02:50:27.604Z,1023.59
2018-11-28T02:51:27.533Z,1023.61
2018-11-28T02:52:27.650Z,1023.59
2018-11-28T02:53:27.622Z,1023.57
2018-11-28T02:54:27.677Z,1023.59
2018-11-28T02:55:27.694Z,1023.61
2018-11-28T02:56:27.666Z,1023.65
2018-11-28T02:57:27.414Z,1023.63
2018-11-28T02:58:27.431Z,1023.64
2018-11-28T02:59:27.411Z,1023.61
2018-11-28T03:00:27.610Z,1023.56
2018-11-28T03:01:27.525Z,1023.62
2018-11-28T03:02:27.541Z,1023.64
2018-11-28T03:03:27.777Z,1023.62
2018-11-28T03:04:27.392Z,1023.6
2018-11-28T03:05:27.431Z,1023.6
2018-11-28T03:06:27.445Z,1023.6
2018-11-28T03:07:27.575Z,1023.66
2018-11-28T03:08:27.440Z,1023.65
2018-11-28T03:09:27.510Z,1023.61
2018-11-28T03:10:27.415Z,1023.67
2018-11-28T03:11:27.404Z,1023.69
2018-11-28T03:12:27.597Z,1023.76
2018-11-28T03:13:27.589Z,1023.72
2018-11-28T03:14:27.368Z,1023.72
2018-11-28T03:15:27.579Z,1023.72
2018-11-28T03:16:27.452Z,1023.75
2018-11-28T03:17:27.405Z,1023.71
2018-11-28T03:18:27.422Z,1023.73
2018-11-28T03:19:27.558Z,1023.74
2018-11-28T03:20:27.489Z,1023.72
2018-11-28T03:21:27.426Z,1023.79
2018-11-28T03:22:27.505Z,1023.82
2018-11-28T03:23:27.456Z,1023.79
2018-11-28T03:24:27.377Z,1023.83
2018-11-28T03:25:27.572Z,1023.87
2018-11-28T03:26:27.462Z,1023.85
2018-11-28T03:27:27.759Z,1023.81
2018-11-28T03:28:27.460Z,1023.83
2018-11-28T03:29:27.506Z,1023.86
2018-11-28T03:30:27.670Z,1023.84
2018-11-28T03:31:27.397Z,1023.87
2018-11-28T03:32:27.471Z,1023.84
2018-11-28T03:33:27.473Z,1023.92
2018-11-28T03:34:27.918Z,1023.83
2018-11-28T03:35:27.559Z,1023.87
2018-11-28T03:36:27.421Z,1023.85
2018-11-28T03:37:27.377Z,1023.86
2018-11-28T03:38:27.474Z,1023.84
2018-11-28T03:39:27.424Z,1023.81
2018-11-28T03:40:27.352Z,1023.88
2018-11-28T03:41:27.393Z,1023.88
2018-11-28T03:42:27.432Z,1023.84
2018-11-28T03:43:27.365Z,1023.9
2018-11-28T03:44:27.856Z,1023.89
2018-11-28T03:45:27.389Z,1023.96
2018-11-28T03:46:27.357Z,1023.97
2018-11-28T03:47:27.364Z,1024.05
2018-11-28T03:48:27.370Z,1024.01
2018-11-28T03:49:27.394Z,1023.99
2018-11-28T03:50:27.385Z,1024.01
2018-11-28T03:51:27.421Z,1023.96
2018-11-28T03:52:27.389Z,1023.99
2018-11-28T03:53:27.361Z,1024.02
2018-11-28T03:54:27.338Z,1024.01
2018-11-28T03:55:27.386Z,1024.05
2018-11-28T03:56:27.361Z,1024.03
2018-11-28T03:57:27.360Z,1024.03
2018-11-28T03:58:27.366Z,1024.04
2018-11-28T03:59:27.429Z,1024.05
2018-11-28T04:00:27.378Z,1024.06
2018-11-28T04:01:27.592Z,1024.1
2018-11-28T04:02:27.477Z,1024.13
2018-11-28T04:03:27.400Z,1024.09
2018-11-28T04:04:27.439Z,1024.12
2018-11-28T04:05:27.367Z,1024.15
2018-11-28T04:06:27.381Z,1024.11
2018-11-28T04:07:27.426Z,1024.1
2018-11-28T04:08:27.338Z,1024.12
2018-11-28T04:09:27.543Z,1024.1
2018-11-28T04:10:27.429Z,1024.07
2018-11-28T04:11:28.072Z,1024.06
2018-11-28T04:12:27.599Z,1024.05
2018-11-28T04:13:27.440Z,1024
2018-11-28T04:14:27.370Z,1023.96
2018-11-28T04:15:27.489Z,1023.98
2018-11-28T04:16:27.343Z,1023.98
2018-11-28T04:17:27.342Z,1024
2018-11-28T04:18:27.646Z,1023.97
2018-11-28T04:19:27.379Z,1023.93
2018-11-28T04:20:27.443Z,1024
2018-11-28T04:21:27.479Z,1023.94
2018-11-28T04:22:27.325Z,1023.91
2018-11-28T04:23:27.544Z,1023.93
2018-11-28T04:24:27.702Z,1023.96
2018-11-28T04:25:27.465Z,1023.9
2018-11-28T04:26:27.311Z,1023.96
2018-11-28T04:27:27.436Z,1024
2018-11-28T04:28:27.387Z,1023.97
2018-11-28T04:29:27.429Z,1024.01
2018-11-28T04:30:27.339Z,1023.99
2018-11-28T04:31:27.494Z,1023.95
2018-11-28T04:32:27.326Z,1023.94
2018-11-28T04:33:27.342Z,1023.97
2018-11-28T04:34:27.407Z,1023.97
2018-11-28T04:35:27.831Z,1023.94
2018-11-28T04:36:27.502Z,1023.95
2018-11-28T04:37:27.301Z,1023.97
2018-11-28T04:38:27.428Z,1023.95
2018-11-28T04:39:27.434Z,1023.99
2018-11-28T04:40:27.560Z,1023.94
2018-11-28T04:41:27.289Z,1023.99
2018-11-28T04:42:27.442Z,1024.03
2018-11-28T04:43:27.410Z,1024.01
2018-11-28T04:44:27.547Z,1024.03
2018-11-28T04:45:27.505Z,1024.05
2018-11-28T04:46:27.347Z,1024.08
2018-11-28T04:47:27.292Z,1024.11
2018-11-28T04:48:27.337Z,1024.12
2018-11-28T04:49:27.283Z,1024.07
2018-11-28T04:50:27.330Z,1024.1
2018-11-28T04:51:27.366Z,1024.1
2018-11-28T04:52:27.330Z,1024.07
2018-11-28T04:53:27.404Z,1024.06
2018-11-28T04:54:27.363Z,1024.06
2018-11-28T04:55:27.270Z,1024.11
2018-11-28T04:56:27.282Z,1024.08
2018-11-28T04:57:27.392Z,1024.03
2018-11-28T04:58:27.409Z,1024.04
2018-11-28T04:59:27.414Z,1023.99
2018-11-28T05:00:27.385Z,1023.99
2018-11-28T05:01:27.478Z,1023.96
2018-11-28T05:02:27.386Z,1023.98
2018-11-28T05:03:27.275Z,1023.91
2018-11-28T05:04:27.468Z,1023.89
2018-11-28T05:05:27.279Z,1023.87
2018-11-28T05:06:27.396Z,1023.9
2018-11-28T05:07:27.400Z,1023.88
2018-11-28T05:08:27.494Z,1023.87
2018-11-28T05:09:27.503Z,1023.82
2018-11-28T05:10:27.367Z,1023.85
2018-11-28T05:11:28.092Z,1023.83
2018-11-28T05:12:27.376Z,1023.83
2018-11-28T05:13:27.342Z,1023.78
2018-11-28T05:14:27.503Z,1023.82
2018-11-28T05:15:27.311Z,1023.81
2018-11-28T05:16:27.421Z,1023.81
2018-11-28T05:17:27.394Z,1023.79
2018-11-28T05:18:27.259Z,1023.8
2018-11-28T05:19:27.239Z,1023.74
2018-11-28T05:20:27.285Z,1023.77
2018-11-28T05:21:27.297Z,1023.74
2018-11-28T05:22:27.264Z,1023.77
2018-11-28T05:23:27.223Z,1023.77
2018-11-28T05:24:27.198Z,1023.76
2018-11-28T05:25:28.314Z,1023.76
2018-11-28T05:26:27.207Z,1023.73
2018-11-28T05:27:27.362Z,1023.73
2018-11-28T05:28:27.236Z,1023.85
2018-11-28T05:29:27.208Z,1023.88
2018-11-28T05:30:27.254Z,1023.8
2018-11-28T05:31:27.258Z,1023.83
2018-11-28T05:32:27.263Z,1023.79
2018-11-28T05:33:27.223Z,1023.86
2018-11-28T05:34:27.201Z,1023.85
2018-11-28T05:35:27.244Z,1023.87
2018-11-28T05:36:28.386Z,1023.93
2018-11-28T05:37:27.217Z,1023.92
2018-11-28T05:38:27.229Z,1023.86
2018-11-28T05:39:27.253Z,1023.88
2018-11-28T05:40:27.607Z,1023.87
2018-11-28T05:41:29.623Z,1023.89
2018-11-28T05:42:27.498Z,1023.87
2018-11-28T05:43:27.241Z,1023.86
2018-11-28T05:44:27.248Z,1023.88
2018-11-28T05:45:27.736Z,1023.88
2018-11-28T05:46:27.343Z,1023.85
2018-11-28T05:47:27.163Z,1023.86
2018-11-28T05:48:27.376Z,1023.87
2018-11-28T05:49:27.242Z,1023.79
2018-11-28T05:50:27.473Z,1023.81
2018-11-28T05:51:27.194Z,1023.78
2018-11-28T05:52:27.249Z,1023.83
2018-11-28T05:53:27.368Z,1023.84
2018-11-28T05:54:27.279Z,1023.85
2018-11-28T05:55:27.379Z,1023.85
2018-11-28T05:56:27.413Z,1023.85
2018-11-28T05:57:27.185Z,1023.86
2018-11-28T05:58:27.264Z,1023.88
2018-11-28T05:59:27.705Z,1023.91
2018-11-28T06:00:28.042Z,1023.87
2018-11-28T06:01:28.010Z,1023.86
2018-11-28T06:02:27.273Z,1023.93
2018-11-28T06:03:27.179Z,1023.92
2018-11-28T06:04:27.180Z,1023.87
2018-11-28T06:05:27.476Z,1023.9
2018-11-28T06:06:27.365Z,1023.91
2018-11-28T06:07:27.376Z,1023.94
2018-11-28T06:08:27.190Z,1023.92
2018-11-28T06:09:27.589Z,1023.97
2018-11-28T06:10:27.247Z,1024
2018-11-28T06:11:27.299Z,1024.02
2018-11-28T06:12:27.219Z,1024.05
2018-11-28T06:13:27.161Z,1024.02
2018-11-28T06:14:27.336Z,1024.06
2018-11-28T06:15:27.265Z,1024.12
2018-11-28T06:16:27.182Z,1024.12
2018-11-28T06:17:27.222Z,1024.09
2018-11-28T06:18:27.343Z,1024.12
2018-11-28T06:19:27.237Z,1024.14
2018-11-28T06:20:27.365Z,1024.11
2018-11-28T06:21:27.155Z,1024.12
2018-11-28T06:22:27.207Z,1024.1
2018-11-28T06:23:27.213Z,1024.06
2018-11-28T06:24:27.271Z,1024.07
2018-11-28T06:25:27.585Z,1024.1
2018-11-28T06:26:27.219Z,1024.07
2018-11-28T06:27:27.334Z,1024.13
2018-11-28T06:28:27.317Z,1024.18
2018-11-28T06:29:27.206Z,1024.15
2018-11-28T06:30:27.313Z,1024.18
2018-11-28T06:31:27.204Z,1024.23
2018-11-28T06:32:27.305Z,1024.24
2018-11-28T06:33:27.336Z,1024.21
2018-11-28T06:34:27.274Z,1024.21
2018-11-28T06:35:27.471Z,1024.23
2018-11-28T06:36:27.427Z,1024.2
2018-11-28T06:37:27.221Z,1024.23
2018-11-28T06:38:27.133Z,1024.17
2018-11-28T06:39:27.237Z,1024.22
2018-11-28T06:40:27.254Z,1024.21
2018-11-28T06:41:27.293Z,1024.2
2018-11-28T06:42:27.203Z,1024.21
2018-11-28T06:43:27.224Z,1024.21
2018-11-28T06:44:27.251Z,1024.24
2018-11-28T06:45:27.617Z,1024.28
2018-11-28T06:46:27.225Z,1024.33
2018-11-28T06:47:27.206Z,1024.31
2018-11-28T06:48:27.268Z,1024.36
2018-11-28T06:49:27.248Z,1024.35
2018-11-28T06:50:27.205Z,1024.35
2018-11-28T06:51:27.398Z,1024.37
2018-11-28T06:52:27.101Z,1024.34
2018-11-28T06:53:27.171Z,1024.35
2018-11-28T06:54:27.249Z,1024.41
2018-11-28T06:55:27.234Z,1024.39
2018-11-28T06:56:27.263Z,1024.41
2018-11-28T06:57:27.113Z,1024.41
2018-11-28T06:58:27.114Z,1024.49
2018-11-28T06:59:27.171Z,1024.48
2018-11-28T07:00:27.082Z,1024.42
2018-11-28T07:01:27.126Z,1024.46
2018-11-28T07:02:27.093Z,1024.46
2018-11-28T07:03:27.118Z,1024.37
2018-11-28T07:04:28.144Z,1024.44
2018-11-28T07:05:27.522Z,1024.32
2018-11-28T07:06:27.122Z,1024.33
2018-11-28T07:07:27.089Z,1024.37
2018-11-28T07:08:27.133Z,1024.36
2018-11-28T07:09:27.126Z,1024.37
2018-11-28T07:10:27.189Z,1024.38
2018-11-28T07:11:27.096Z,1024.44
2018-11-28T07:12:27.208Z,1024.45
2018-11-28T07:13:27.140Z,1024.48
2018-11-28T07:14:27.222Z,1024.54
2018-11-28T07:15:27.112Z,1024.51
2018-11-28T07:16:27.247Z,1024.53
2018-11-28T07:17:27.099Z,1024.53
2018-11-28T07:18:27.122Z,1024.53
2018-11-28T07:19:27.191Z,1024.55
2018-11-28T07:20:27.137Z,1024.52
2018-11-28T07:21:27.122Z,1024.53
2018-11-28T07:22:27.208Z,1024.53
2018-11-28T07:23:27.136Z,1024.52
2018-11-28T07:24:27.285Z,1024.53
2018-11-28T07:25:27.502Z,1024.55
2018-11-28T07:26:27.147Z,1024.59
2018-11-28T07:27:27.158Z,1024.53
2018-11-28T07:28:27.638Z,1024.6
2018-11-28T07:29:27.137Z,1024.57
2018-11-28T07:30:27.224Z,1024.59
2018-11-28T07:31:27.187Z,1024.57
2018-11-28T07:32:27.173Z,1024.57
2018-11-28T07:33:27.214Z,1024.63
2018-11-28T07:34:27.099Z,1024.57
2018-11-28T07:35:27.485Z,1024.6
2018-11-28T07:36:27.263Z,1024.6
2018-11-28T07:37:27.111Z,1024.6
2018-11-28T07:38:27.477Z,1024.61
2018-11-28T07:39:27.438Z,1024.63
2018-11-28T07:40:27.154Z,1024.63
2018-11-28T07:41:27.134Z,1024.63
2018-11-28T07:42:27.096Z,1024.59
2018-11-28T07:43:27.069Z,1024.62
2018-11-28T07:44:27.164Z,1024.6
2018-11-28T07:45:27.197Z,1024.56
2018-11-28T07:46:28.149Z,1024.56
2018-11-28T07:47:27.973Z,1024.6
2018-11-28T07:48:27.076Z,1024.61
2018-11-28T07:49:27.271Z,1024.64
2018-11-28T07:50:27.025Z,1024.59
2018-11-28T07:51:27.082Z,1024.66
2018-11-28T07:52:27.146Z,1024.63
2018-11-28T07:53:27.031Z,1024.67
2018-11-28T07:54:27.055Z,1024.71
2018-11-28T07:55:27.594Z,1024.68
2018-11-28T07:56:27.063Z,1024.65
2018-11-28T07:57:27.037Z,1024.65
2018-11-28T07:58:27.086Z,1024.7
2018-11-28T07:59:27.055Z,1024.7
2018-11-28T08:00:27.142Z,1024.73
2018-11-28T08:01:27.099Z,1024.7
2018-11-28T08:02:27.159Z,1024.74
2018-11-28T08:03:27.057Z,1024.76
2018-11-28T08:04:27.149Z,1024.79
2018-11-28T08:05:27.365Z,1024.75
2018-11-28T08:06:27.506Z,1024.79
2018-11-28T08:07:27.005Z,1024.82
2018-11-28T08:08:27.016Z,1024.81
2018-11-28T08:09:27.222Z,1024.83
2018-11-28T08:10:27.131Z,1024.82
2018-11-28T08:11:27.083Z,1024.84
2018-11-28T08:12:27.093Z,1024.81
2018-11-28T08:13:27.102Z,1024.79
2018-11-28T08:14:27.177Z,1024.8
2018-11-28T08:15:27.103Z,1024.84
2018-11-28T08:16:26.990Z,1024.84
2018-11-28T08:17:27.403Z,1024.85
2018-11-28T08:18:27.019Z,1024.81
2018-11-28T08:19:27.007Z,1024.84
2018-11-28T08:20:27.190Z,1024.78
2018-11-28T08:21:27.201Z,1024.78
2018-11-28T08:22:27.464Z,1024.8
2018-11-28T08:23:28.262Z,1024.81
2018-11-28T08:24:27.123Z,1024.81
2018-11-28T08:25:28.201Z,1024.79
2018-11-28T08:26:27.452Z,1024.78
2018-11-28T08:27:27.018Z,1024.82
2018-11-28T08:28:27.130Z,1024.84
2018-11-28T08:29:27.009Z,1024.79
2018-11-28T08:30:27.070Z,1024.84
2018-11-28T08:31:27.068Z,1024.84
2018-11-28T08:32:27.052Z,1024.8
2018-11-28T08:33:27.416Z,1024.87
2018-11-28T08:34:27.219Z,1024.85
2018-11-28T08:35:26.998Z,1024.87
2018-11-28T08:36:27.034Z,1024.86
2018-11-28T08:37:27.162Z,1024.82
2018-11-28T08:38:27.042Z,1024.9
2018-11-28T08:39:26.968Z,1024.91
2018-11-28T08:40:27.168Z,1024.91
2018-11-28T08:41:26.974Z,1024.89
2018-11-28T08:42:27.075Z,1024.9
2018-11-28T08:43:27.033Z,1024.93
2018-11-28T08:44:27.002Z,1024.92
2018-11-28T08:45:27.022Z,1024.93
2018-11-28T08:46:27.081Z,1024.91
2018-11-28T08:47:27.241Z,1024.93
2018-11-28T08:48:26.963Z,1024.88
2018-11-28T08:49:26.968Z,1024.94
2018-11-28T08:50:26.943Z,1024.94
2018-11-28T08:51:27.254Z,1024.98
2018-11-28T08:52:27.008Z,1024.89
2018-11-28T08:53:27.057Z,1024.9
2018-11-28T08:54:26.949Z,1024.91
2018-11-28T08:55:27.007Z,1024.92
2018-11-28T08:56:26.983Z,1024.92
2018-11-28T08:57:26.938Z,1024.96
2018-11-28T08:58:27.133Z,1024.88
2018-11-28T08:59:27.025Z,1024.88
2018-11-28T09:00:27.057Z,1024.94
2018-11-28T09:01:27.199Z,1024.97
2018-11-28T09:02:27.103Z,1024.95
2018-11-28T09:03:27.084Z,1024.95
2018-11-28T09:04:27.277Z,1024.98
2018-11-28T09:05:26.993Z,1024.97
2018-11-28T09:06:26.982Z,1025.03
2018-11-28T09:07:27.194Z,1025.06
2018-11-28T09:08:26.960Z,1025.06
2018-11-28T09:09:26.972Z,1025.08
2018-11-28T09:10:27.334Z,1025.09
2018-11-28T09:11:27.033Z,1025.02
2018-11-28T09:12:27.064Z,1025.03
2018-11-28T09:13:27.288Z,1025.06
2018-11-28T09:14:27.314Z,1025.05
2018-11-28T09:15:27.157Z,1025.06
2018-11-28T09:16:26.952Z,1025.1
2018-11-28T09:17:26.963Z,1025
2018-11-28T09:18:26.931Z,1025.05
2018-11-28T09:19:26.938Z,1025.05
2018-11-28T09:20:27.224Z,1024.98
2018-11-28T09:21:27.024Z,1025.02
2018-11-28T09:22:26.972Z,1025.04
2018-11-28T09:23:27.059Z,1025.01
2018-11-28T09:24:26.960Z,1025.1
2018-11-28T09:25:26.959Z,1025.1
2018-11-28T09:26:26.955Z,1025.05
2018-11-28T09:27:26.910Z,1025.08
2018-11-28T09:28:26.939Z,1025.06
2018-11-28T09:29:27.075Z,1025.06
2018-11-28T09:30:26.974Z,1025.12
2018-11-28T09:31:27.062Z,1025.08
2018-11-28T09:32:26.995Z,1025.12
2018-11-28T09:33:27.181Z,1025.14
2018-11-28T09:34:27.072Z,1025.18
2018-11-28T09:35:27.105Z,1025.18
2018-11-28T09:36:26.986Z,1025.23
2018-11-28T09:37:26.981Z,1025.21
2018-11-28T09:38:26.960Z,1025.27
2018-11-28T09:39:27.279Z,1025.2
2018-11-28T09:40:27.026Z,1025.22
2018-11-28T09:41:26.895Z,1025.26
2018-11-28T09:42:27.033Z,1025.31
2018-11-28T09:43:26.946Z,1025.25
2018-11-28T09:44:27.029Z,1025.27
2018-11-28T09:45:26.954Z,1025.23
2018-11-28T09:46:26.940Z,1025.21
2018-11-28T09:47:26.933Z,1025.24
2018-11-28T09:48:26.961Z,1025.24
2018-11-28T09:49:27.218Z,1025.28
2018-11-28T09:50:27.015Z,1025.29
2018-11-28T09:51:26.921Z,1025.3
2018-11-28T09:52:26.969Z,1025.26
2018-11-28T09:53:27.037Z,1025.23
2018-11-28T09:54:27.064Z,1025.2
2018-11-28T09:55:27.061Z,1025.19
2018-11-28T09:56:27.734Z,1025.19
2018-11-28T09:57:26.948Z,1025.19
2018-11-28T09:58:26.868Z,1025.17
2018-11-28T09:59:27.084Z,1025.13
2018-11-28T10:00:27.121Z,1025.1
2018-11-28T10:01:26.894Z,1025.12
2018-11-28T10:02:26.959Z,1025.04
2018-11-28T10:03:27.149Z,1025.07
2018-11-28T10:04:26.868Z,1025.04
2018-11-28T10:05:27.062Z,1025.07
2018-11-28T10:06:26.955Z,1025.06
2018-11-28T10:07:26.976Z,1025.07
2018-11-28T10:08:27.018Z,1025.08
2018-11-28T10:09:26.990Z,1025.05
2018-11-28T10:10:27.027Z,1025.06
2018-11-28T10:11:27.091Z,1025
2018-11-28T10:12:26.989Z,1025.01
2018-11-28T10:13:27.096Z,1025
2018-11-28T10:14:26.862Z,1024.95
2018-11-28T10:15:26.948Z,1024.99
2018-11-28T10:16:26.993Z,1024.94
2018-11-28T10:17:26.959Z,1024.94
2018-11-28T10:18:26.863Z,1024.98
2018-11-28T10:19:27.136Z,1024.92
2018-11-28T10:20:26.994Z,1024.91
2018-11-28T10:21:27.236Z,1024.94
2018-11-28T10:22:26.881Z,1024.94
2018-11-28T10:23:26.970Z,1024.94
2018-11-28T10:24:26.931Z,1024.92
2018-11-28T10:25:27.215Z,1024.91
2018-11-28T10:26:26.900Z,1024.94
2018-11-28T10:27:26.988Z,1024.95
2018-11-28T10:28:26.996Z,1024.94
2018-11-28T10:29:26.918Z,1024.93
2018-11-28T10:30:27.097Z,1024.94
2018-11-28T10:31:27.030Z,1024.9
2018-11-28T10:32:26.804Z,1024.87
2018-11-28T10:33:26.917Z,1024.87
2018-11-28T10:34:29.674Z,1024.85
2018-11-28T10:35:26.925Z,1024.8
2018-11-28T10:36:27.091Z,1024.79
2018-11-28T10:37:26.919Z,1024.76
2018-11-28T10:38:27.070Z,1024.76
2018-11-28T10:39:26.825Z,1024.73
2018-11-28T10:40:26.842Z,1024.72
2018-11-28T10:41:26.949Z,1024.7
2018-11-28T10:42:26.941Z,1024.7
2018-11-28T10:43:26.969Z,1024.67
2018-11-28T10:44:26.968Z,1024.69
2018-11-28T10:45:26.925Z,1024.73
2018-11-28T10:46:27.752Z,1024.72
2018-11-28T10:47:26.842Z,1024.76
2018-11-28T10:48:26.980Z,1024.7
2018-11-28T10:49:26.812Z,1024.7
2018-11-28T10:50:26.912Z,1024.68
2018-11-28T10:51:27.098Z,1024.65
2018-11-28T10:52:27.007Z,1024.66
2018-11-28T10:53:26.867Z,1024.69
2018-11-28T10:54:27.180Z,1024.6
2018-11-28T10:55:26.846Z,1024.63
2018-11-28T10:56:27.092Z,1024.62
2018-11-28T10:57:27.046Z,1024.56
2018-11-28T10:58:27.691Z,1024.62
2018-11-28T10:59:27.041Z,1024.55
2018-11-28T11:00:26.762Z,1024.57
2018-11-28T11:01:27.016Z,1024.55
2018-11-28T11:02:26.894Z,1024.58
2018-11-28T11:03:26.786Z,1024.53
2018-11-28T11:04:27.133Z,1024.57
2018-11-28T11:05:27.097Z,1024.55
2018-11-28T11:06:27.162Z,1024.54
2018-11-28T11:07:26.928Z,1024.52
2018-11-28T11:08:27.027Z,1024.54
2018-11-28T11:09:26.951Z,1024.58
2018-11-28T11:10:26.843Z,1024.55
2018-11-28T11:11:26.885Z,1024.51
2018-11-28T11:12:26.990Z,1024.48
2018-11-28T11:13:26.752Z,1024.46
2018-11-28T11:14:26.907Z,1024.44
2018-11-28T11:15:26.964Z,1024.48
2018-11-28T11:16:26.956Z,1024.44
2018-11-28T11:17:27.001Z,1024.43
2018-11-28T11:18:27.245Z,1024.43
2018-11-28T11:19:26.768Z,1024.43
2018-11-28T11:20:26.748Z,1024.37
2018-11-28T11:21:27.081Z,1024.42
2018-11-28T11:22:26.953Z,1024.4
2018-11-28T11:23:27.165Z,1024.41
2018-11-28T11:24:27.008Z,1024.37
2018-11-28T11:25:26.768Z,1024.36
2018-11-28T11:26:27.206Z,1024.33
2018-11-28T11:27:26.931Z,1024.37
2018-11-28T11:28:27.199Z,1024.35
2018-11-28T11:29:27.076Z,1024.4
2018-11-28T11:30:26.766Z,1024.34
2018-11-28T11:31:26.727Z,1024.37
2018-11-28T11:32:26.857Z,1024.36
2018-11-28T11:33:27.030Z,1024.39
2018-11-28T11:34:27.051Z,1024.34
2018-11-28T11:35:26.800Z,1024.35
2018-11-28T11:36:26.855Z,1024.37
2018-11-28T11:37:26.761Z,1024.33
2018-11-28T11:38:26.977Z,1024.33
2018-11-28T11:39:26.824Z,1024.39
2018-11-28T11:40:26.756Z,1024.35
2018-11-28T11:41:27.131Z,1024.36
2018-11-28T11:42:26.742Z,1024.36
2018-11-28T11:43:26.774Z,1024.33
2018-11-28T11:44:26.719Z,1024.32
2018-11-28T11:45:26.752Z,1024.35
2018-11-28T11:46:26.717Z,1024.33
2018-11-28T11:47:27.243Z,1024.37
2018-11-28T11:48:26.711Z,1024.25
2018-11-28T11:49:27.019Z,1024.35
2018-11-28T11:50:26.705Z,1024.3
2018-11-28T11:51:26.774Z,1024.29
2018-11-28T11:52:27.642Z,1024.29
2018-11-28T11:53:27.159Z,1024.29
2018-11-28T11:54:26.741Z,1024.24
2018-11-28T11:55:27.086Z,1024.3
2018-11-28T11:56:27.522Z,1024.3
2018-11-28T11:57:26.746Z,1024.28
2018-11-28T11:58:27.095Z,1024.29
2018-11-28T11:59:26.782Z,1024.3
2018-11-28T12:00:26.768Z,1024.29
2018-11-28T12:01:26.770Z,1024.26
2018-11-28T12:02:26.777Z,1024.31
2018-11-28T12:03:26.810Z,1024.28
2018-11-28T12:04:26.718Z,1024.32
2018-11-28T12:05:26.726Z,1024.29
2018-11-28T12:06:26.691Z,1024.26
2018-11-28T12:07:26.748Z,1024.28
2018-11-28T12:08:26.922Z,1024.3